sensor_id;sensor_type;location;lat;lon;timestamp;temperature;humidity
54431;DHT22;40342;52.998;5.862;2023-02-01T00:01:39;5.70;99.90
54431;DHT22;40342;52.998;5.862;2023-02-01T00:04:05;5.70;99.90
54431;DHT22;40342;52.998;5.862;2023-02-01T00:06:30;5.60;99.90
54431;DHT22;40342;52.998;5.862;2023-02-01T00:08:56;5.70;99.90
54431;DHT22;40342;52.998;5.862;2023-02-01T00:11:22;5.70;99.90
54431;DHT22;40342;52.998;5.862;2023-02-01T00:13:49;5.70;99.90
54431;DHT22;40342;52.998;5.862;2023-02-01T00:16:23;5.70;99.90
54431;DHT22;40342;52.998;5.862;2023-02-01T00:18:50;5.80;99.90
54431;DHT22;40342;52.998;5.862;2023-02-01T00:21:20;5.80;99.90
54431;DHT22;40342;52.998;5.862;2023-02-01T00:23:46;5.80;99.90
54431;DHT22;40342;52.998;5.862;2023-02-01T00:26:15;5.80;99.90
54431;DHT22;40342;52.998;5.862;2023-02-01T00:28:41;5.80;99.90
54431;DHT22;40342;52.998;5.862;2023-02-01T00:31:07;5.80;99.90
54431;DHT22;40342;52.998;5.862;2023-02-01T00:33:33;5.70;99.90
54431;DHT22;40342;52.998;5.862;2023-02-01T00:36:04;5.70;99.90
54431;DHT22;40342;52.998;5.862;2023-02-01T00:38:31;5.80;99.90
54431;DHT22;40342;52.998;5.862;2023-02-01T00:41:15;5.80;99.90
54431;DHT22;40342;52.998;5.862;2023-02-01T00:43:42;5.80;99.90
54431;DHT22;40342;52.998;5.862;2023-02-01T00:46:07;5.80;99.90
54431;DHT22;40342;52.998;5.862;2023-02-01T00:48:33;5.90;99.90
54431;DHT22;40342;52.998;5.862;2023-02-01T00:51:04;5.80;99.90
54431;DHT22;40342;52.998;5.862;2023-02-01T00:53:31;5.80;99.90
54431;DHT22;40342;52.998;5.862;2023-02-01T00:55:57;5.80;99.90
54431;DHT22;40342;52.998;5.862;2023-02-01T00:58:23;5.80;99.90
54431;DHT22;40342;52.998;5.862;2023-02-01T01:03:31;5.90;99.90
54431;DHT22;40342;52.998;5.862;2023-02-01T01:05:59;5.90;99.90
54431;DHT22;40342;52.998;5.862;2023-02-01T01:08:26;5.80;99.90
54431;DHT22;40342;52.998;5.862;2023-02-01T01:10:51;5.80;99.90
54431;DHT22;40342;52.998;5.862;2023-02-01T01:13:17;5.90;99.90
54431;DHT22;40342;52.998;5.862;2023-02-01T01:15:43;5.80;99.90
54431;DHT22;40342;52.998;5.862;2023-02-01T01:18:08;5.90;99.90
54431;DHT22;40342;52.998;5.862;2023-02-01T01:20:35;5.90;99.90
54431;DHT22;40342;52.998;5.862;2023-02-01T01:23:02;5.90;99.90
54431;DHT22;40342;52.998;5.862;2023-02-01T01:25:27;5.90;99.90
54431;DHT22;40342;52.998;5.862;2023-02-01T01:27:53;5.90;99.90
54431;DHT22;40342;52.998;5.862;2023-02-01T01:30:18;5.90;99.90
54431;DHT22;40342;52.998;5.862;2023-02-01T01:32:44;5.90;99.90
54431;DHT22;40342;52.998;5.862;2023-02-01T01:35:10;5.90;99.90
54431;DHT22;40342;52.998;5.862;2023-02-01T01:37:36;5.90;99.90
54431;DHT22;40342;52.998;5.862;2023-02-01T01:40:07;6.00;99.90
54431;DHT22;40342;52.998;5.862;2023-02-01T01:42:40;6.00;99.90
54431;DHT22;40342;52.998;5.862;2023-02-01T01:45:08;5.90;99.90
54431;DHT22;40342;52.998;5.862;2023-02-01T01:47:41;5.90;99.90
54431;DHT22;40342;52.998;5.862;2023-02-01T01:50:15;5.90;99.90
54431;DHT22;40342;52.998;5.862;2023-02-01T01:52:43;5.90;99.90
54431;DHT22;40342;52.998;5.862;2023-02-01T01:55:13;5.90;99.90
54431;DHT22;40342;52.998;5.862;2023-02-01T01:57:42;5.90;99.90
54431;DHT22;40342;52.998;5.862;2023-02-01T02:00:11;5.90;99.90
54431;DHT22;40342;52.998;5.862;2023-02-01T02:02:38;5.80;99.90
54431;DHT22;40342;52.998;5.862;2023-02-01T02:05:06;5.80;99.90
54431;DHT22;40342;52.998;5.862;2023-02-01T02:07:36;5.80;99.90
54431;DHT22;40342;52.998;5.862;2023-02-01T02:10:08;5.80;99.90
54431;DHT22;40342;52.998;5.862;2023-02-01T02:12:38;5.80;99.90
54431;DHT22;40342;52.998;5.862;2023-02-01T02:15:06;5.80;99.90
54431;DHT22;40342;52.998;5.862;2023-02-01T02:23:30;5.80;99.90
54431;DHT22;40342;52.998;5.862;2023-02-01T02:26:34;5.70;99.90
54431;DHT22;40342;52.998;5.862;2023-02-01T02:37:36;5.70;99.90
54431;DHT22;40342;52.998;5.862;2023-02-01T02:40:31;5.80;99.90
54431;DHT22;40342;52.998;5.862;2023-02-01T02:43:04;5.80;99.90
54431;DHT22;40342;52.998;5.862;2023-02-01T02:46:06;5.80;99.90
54431;DHT22;40342;52.998;5.862;2023-02-01T02:49:05;5.80;99.90
54431;DHT22;40342;52.998;5.862;2023-02-01T02:51:46;5.80;99.90
54431;DHT22;40342;52.998;5.862;2023-02-01T02:54:37;5.80;99.90
54431;DHT22;40342;52.998;5.862;2023-02-01T02:57:38;5.80;99.90
54431;DHT22;40342;52.998;5.862;2023-02-01T03:00:29;5.80;99.90
54431;DHT22;40342;52.998;5.862;2023-02-01T03:03:15;5.80;99.90
54431;DHT22;40342;52.998;5.862;2023-02-01T03:05:59;5.80;99.90
54431;DHT22;40342;52.998;5.862;2023-02-01T03:08:26;5.80;99.90
54431;DHT22;40342;52.998;5.862;2023-02-01T03:11:02;5.80;99.90
54431;DHT22;40342;52.998;5.862;2023-02-01T03:13:36;5.90;99.90
54431;DHT22;40342;52.998;5.862;2023-02-01T03:21:29;5.80;99.90
54431;DHT22;40342;52.998;5.862;2023-02-01T03:24:02;5.90;99.90
54431;DHT22;40342;52.998;5.862;2023-02-01T03:26:29;5.90;99.90
54431;DHT22;40342;52.998;5.862;2023-02-01T03:29:05;5.90;99.90
54431;DHT22;40342;52.998;5.862;2023-02-01T03:31:33;5.90;99.90
54431;DHT22;40342;52.998;5.862;2023-02-01T03:33:58;5.90;99.90
54431;DHT22;40342;52.998;5.862;2023-02-01T03:36:42;5.90;99.90
54431;DHT22;40342;52.998;5.862;2023-02-01T03:39:22;6.00;99.90
54431;DHT22;40342;52.998;5.862;2023-02-01T03:41:53;5.90;99.90
54431;DHT22;40342;52.998;5.862;2023-02-01T03:44:23;6.00;99.90
54431;DHT22;40342;52.998;5.862;2023-02-01T03:46:57;6.00;99.90
54431;DHT22;40342;52.998;5.862;2023-02-01T03:49:30;6.00;99.90
54431;DHT22;40342;52.998;5.862;2023-02-01T03:51:58;6.00;99.90
54431;DHT22;40342;52.998;5.862;2023-02-01T03:54:26;6.00;99.90
54431;DHT22;40342;52.998;5.862;2023-02-01T03:56:55;6.10;99.90
54431;DHT22;40342;52.998;5.862;2023-02-01T03:59:21;6.00;99.90
54431;DHT22;40342;52.998;5.862;2023-02-01T04:01:47;6.00;99.90
54431;DHT22;40342;52.998;5.862;2023-02-01T04:04:13;6.10;99.90
54431;DHT22;40342;52.998;5.862;2023-02-01T04:06:46;6.10;99.90
54431;DHT22;40342;52.998;5.862;2023-02-01T04:09:12;6.10;99.90
54431;DHT22;40342;52.998;5.862;2023-02-01T04:11:37;6.00;99.90
54431;DHT22;40342;52.998;5.862;2023-02-01T04:14:03;6.00;99.90
54431;DHT22;40342;52.998;5.862;2023-02-01T04:16:33;6.10;99.90
54431;DHT22;40342;52.998;5.862;2023-02-01T04:18:59;6.10;99.90
54431;DHT22;40342;52.998;5.862;2023-02-01T04:21:26;6.00;99.90
54431;DHT22;40342;52.998;5.862;2023-02-01T04:23:52;6.10;99.90
54431;DHT22;40342;52.998;5.862;2023-02-01T04:26:18;6.10;99.90
54431;DHT22;40342;52.998;5.862;2023-02-01T04:28:45;6.10;99.90
54431;DHT22;40342;52.998;5.862;2023-02-01T04:31:14;6.00;99.90
54431;DHT22;40342;52.998;5.862;2023-02-01T04:33:39;6.00;99.90
54431;DHT22;40342;52.998;5.862;2023-02-01T04:36:05;6.00;99.90
54431;DHT22;40342;52.998;5.862;2023-02-01T04:38:31;5.90;99.90
54431;DHT22;40342;52.998;5.862;2023-02-01T04:40:58;5.90;99.90
54431;DHT22;40342;52.998;5.862;2023-02-01T04:43:24;5.90;99.90
54431;DHT22;40342;52.998;5.862;2023-02-01T04:45:51;5.80;99.90
54431;DHT22;40342;52.998;5.862;2023-02-01T04:48:18;5.80;99.90
54431;DHT22;40342;52.998;5.862;2023-02-01T04:50:45;5.70;99.90
54431;DHT22;40342;52.998;5.862;2023-02-01T04:53:17;5.80;99.90
54431;DHT22;40342;52.998;5.862;2023-02-01T04:55:43;5.80;99.90
54431;DHT22;40342;52.998;5.862;2023-02-01T04:58:09;5.80;99.90
54431;DHT22;40342;52.998;5.862;2023-02-01T05:00:35;5.80;99.90
54431;DHT22;40342;52.998;5.862;2023-02-01T05:03:00;5.80;99.90
54431;DHT22;40342;52.998;5.862;2023-02-01T05:05:27;5.80;99.90
54431;DHT22;40342;52.998;5.862;2023-02-01T05:07:53;5.90;99.90
54431;DHT22;40342;52.998;5.862;2023-02-01T05:10:18;5.80;99.90
54431;DHT22;40342;52.998;5.862;2023-02-01T05:12:44;5.90;99.90
54431;DHT22;40342;52.998;5.862;2023-02-01T05:15:29;5.90;99.90
54431;DHT22;40342;52.998;5.862;2023-02-01T05:17:55;5.90;99.90
54431;DHT22;40342;52.998;5.862;2023-02-01T05:20:21;5.90;99.90
54431;DHT22;40342;52.998;5.862;2023-02-01T05:22:46;5.90;99.90
54431;DHT22;40342;52.998;5.862;2023-02-01T05:25:12;5.90;99.90
54431;DHT22;40342;52.998;5.862;2023-02-01T05:27:37;5.90;99.90
54431;DHT22;40342;52.998;5.862;2023-02-01T05:30:04;5.90;99.90
54431;DHT22;40342;52.998;5.862;2023-02-01T05:32:30;5.90;99.90
54431;DHT22;40342;52.998;5.862;2023-02-01T05:34:55;5.90;99.90
54431;DHT22;40342;52.998;5.862;2023-02-01T05:37:21;5.90;99.90
54431;DHT22;40342;52.998;5.862;2023-02-01T05:39:47;5.90;99.90
54431;DHT22;40342;52.998;5.862;2023-02-01T05:42:12;5.90;99.90
54431;DHT22;40342;52.998;5.862;2023-02-01T05:44:38;5.90;99.90
54431;DHT22;40342;52.998;5.862;2023-02-01T05:47:04;5.90;99.90
54431;DHT22;40342;52.998;5.862;2023-02-01T05:49:29;5.90;99.90
54431;DHT22;40342;52.998;5.862;2023-02-01T05:51:55;5.90;99.90
54431;DHT22;40342;52.998;5.862;2023-02-01T05:54:20;5.90;99.90
54431;DHT22;40342;52.998;5.862;2023-02-01T05:56:46;5.90;99.90
54431;DHT22;40342;52.998;5.862;2023-02-01T05:59:11;5.90;99.90
54431;DHT22;40342;52.998;5.862;2023-02-01T06:01:37;5.80;99.90
54431;DHT22;40342;52.998;5.862;2023-02-01T06:04:02;5.80;99.90
54431;DHT22;40342;52.998;5.862;2023-02-01T06:06:28;5.70;99.90
54431;DHT22;40342;52.998;5.862;2023-02-01T06:08:54;5.70;99.90
54431;DHT22;40342;52.998;5.862;2023-02-01T06:11:19;5.70;99.90
54431;DHT22;40342;52.998;5.862;2023-02-01T06:13:45;5.70;99.90
54431;DHT22;40342;52.998;5.862;2023-02-01T06:16:10;5.70;99.90
54431;DHT22;40342;52.998;5.862;2023-02-01T06:18:36;5.70;99.90
54431;DHT22;40342;52.998;5.862;2023-02-01T06:21:01;5.70;99.90
54431;DHT22;40342;52.998;5.862;2023-02-01T06:23:28;5.70;99.90
54431;DHT22;40342;52.998;5.862;2023-02-01T06:26:03;5.70;99.90
54431;DHT22;40342;52.998;5.862;2023-02-01T06:28:30;5.70;99.90
54431;DHT22;40342;52.998;5.862;2023-02-01T06:30:56;5.70;99.90
54431;DHT22;40342;52.998;5.862;2023-02-01T06:33:24;5.70;99.90
54431;DHT22;40342;52.998;5.862;2023-02-01T06:35:56;5.70;99.90
54431;DHT22;40342;52.998;5.862;2023-02-01T06:38:22;5.70;99.90
54431;DHT22;40342;52.998;5.862;2023-02-01T06:40:52;5.70;99.90
54431;DHT22;40342;52.998;5.862;2023-02-01T06:43:18;5.80;99.90
54431;DHT22;40342;52.998;5.862;2023-02-01T06:45:44;5.80;99.90
54431;DHT22;40342;52.998;5.862;2023-02-01T06:48:09;5.80;99.90
54431;DHT22;40342;52.998;5.862;2023-02-01T06:50:35;5.80;99.90
54431;DHT22;40342;52.998;5.862;2023-02-01T06:53:00;5.90;99.90
54431;DHT22;40342;52.998;5.862;2023-02-01T06:55:26;5.90;99.90
54431;DHT22;40342;52.998;5.862;2023-02-01T06:57:55;5.90;99.90
54431;DHT22;40342;52.998;5.862;2023-02-01T07:00:24;5.90;99.90
54431;DHT22;40342;52.998;5.862;2023-02-01T07:02:50;5.90;99.90
54431;DHT22;40342;52.998;5.862;2023-02-01T07:05:16;5.90;99.90
54431;DHT22;40342;52.998;5.862;2023-02-01T07:07:42;5.80;99.90
54431;DHT22;40342;52.998;5.862;2023-02-01T07:10:09;5.90;99.90
54431;DHT22;40342;52.998;5.862;2023-02-01T07:12:35;5.90;99.90
54431;DHT22;40342;52.998;5.862;2023-02-01T07:15:01;5.80;99.90
54431;DHT22;40342;52.998;5.862;2023-02-01T07:17:28;5.80;99.90
54431;DHT22;40342;52.998;5.862;2023-02-01T07:19:55;5.70;99.90
54431;DHT22;40342;52.998;5.862;2023-02-01T07:22:20;5.60;99.90
54431;DHT22;40342;52.998;5.862;2023-02-01T07:24:46;5.60;99.90
54431;DHT22;40342;52.998;5.862;2023-02-01T07:27:12;5.60;99.90
54431;DHT22;40342;52.998;5.862;2023-02-01T07:29:38;5.60;99.90
54431;DHT22;40342;52.998;5.862;2023-02-01T07:32:03;5.50;99.90
54431;DHT22;40342;52.998;5.862;2023-02-01T07:34:29;5.60;99.90
54431;DHT22;40342;52.998;5.862;2023-02-01T07:36:56;5.50;99.90
54431;DHT22;40342;52.998;5.862;2023-02-01T07:39:22;5.50;99.90
54431;DHT22;40342;52.998;5.862;2023-02-01T07:41:48;5.50;99.90
54431;DHT22;40342;52.998;5.862;2023-02-01T07:44:13;5.50;99.90
54431;DHT22;40342;52.998;5.862;2023-02-01T07:46:39;5.50;99.90
54431;DHT22;40342;52.998;5.862;2023-02-01T07:49:05;5.50;99.90
54431;DHT22;40342;52.998;5.862;2023-02-01T07:51:31;5.50;99.90
54431;DHT22;40342;52.998;5.862;2023-02-01T07:53:57;5.50;99.90
54431;DHT22;40342;52.998;5.862;2023-02-01T07:56:23;5.50;99.90
54431;DHT22;40342;52.998;5.862;2023-02-01T07:58:50;5.50;99.90
54431;DHT22;40342;52.998;5.862;2023-02-01T08:01:18;5.60;99.90
54431;DHT22;40342;52.998;5.862;2023-02-01T08:03:55;5.60;99.90
54431;DHT22;40342;52.998;5.862;2023-02-01T08:06:22;5.60;99.90
54431;DHT22;40342;52.998;5.862;2023-02-01T08:08:49;5.60;99.90
54431;DHT22;40342;52.998;5.862;2023-02-01T08:11:15;5.60;99.90
54431;DHT22;40342;52.998;5.862;2023-02-01T08:13:41;5.60;99.90
54431;DHT22;40342;52.998;5.862;2023-02-01T08:16:09;5.60;99.90
54431;DHT22;40342;52.998;5.862;2023-02-01T08:18:36;5.60;99.90
54431;DHT22;40342;52.998;5.862;2023-02-01T08:21:14;5.70;99.90
54431;DHT22;40342;52.998;5.862;2023-02-01T08:23:41;5.70;99.90
54431;DHT22;40342;52.998;5.862;2023-02-01T08:26:19;5.70;99.90
54431;DHT22;40342;52.998;5.862;2023-02-01T08:28:51;5.80;99.90
54431;DHT22;40342;52.998;5.862;2023-02-01T08:31:19;5.80;99.90
54431;DHT22;40342;52.998;5.862;2023-02-01T08:33:56;5.90;99.90
54431;DHT22;40342;52.998;5.862;2023-02-01T08:36:23;5.90;99.90
54431;DHT22;40342;52.998;5.862;2023-02-01T08:38:49;5.90;99.90
54431;DHT22;40342;52.998;5.862;2023-02-01T08:41:17;5.90;99.90
54431;DHT22;40342;52.998;5.862;2023-02-01T08:43:43;5.90;99.90
54431;DHT22;40342;52.998;5.862;2023-02-01T08:46:10;6.00;99.90
54431;DHT22;40342;52.998;5.862;2023-02-01T08:48:36;6.00;99.90
54431;DHT22;40342;52.998;5.862;2023-02-01T08:51:08;6.00;99.90
54431;DHT22;40342;52.998;5.862;2023-02-01T08:53:35;6.00;99.90
54431;DHT22;40342;52.998;5.862;2023-02-01T08:56:01;6.00;99.90
54431;DHT22;40342;52.998;5.862;2023-02-01T08:58:27;6.00;99.90
54431;DHT22;40342;52.998;5.862;2023-02-01T09:00:53;6.00;99.90
54431;DHT22;40342;52.998;5.862;2023-02-01T09:03:19;6.00;99.90
54431;DHT22;40342;52.998;5.862;2023-02-01T09:05:44;6.00;99.90
54431;DHT22;40342;52.998;5.862;2023-02-01T09:08:11;6.00;99.90
54431;DHT22;40342;52.998;5.862;2023-02-01T09:10:39;6.00;99.90
54431;DHT22;40342;52.998;5.862;2023-02-01T09:13:05;6.00;99.90
54431;DHT22;40342;52.998;5.862;2023-02-01T09:15:30;6.00;99.90
54431;DHT22;40342;52.998;5.862;2023-02-01T09:17:56;6.10;99.90
54431;DHT22;40342;52.998;5.862;2023-02-01T09:20:21;6.10;99.90
54431;DHT22;40342;52.998;5.862;2023-02-01T09:22:52;6.10;99.90
54431;DHT22;40342;52.998;5.862;2023-02-01T09:25:19;6.10;99.90
54431;DHT22;40342;52.998;5.862;2023-02-01T09:27:45;6.10;99.90
54431;DHT22;40342;52.998;5.862;2023-02-01T09:30:11;6.10;99.90
54431;DHT22;40342;52.998;5.862;2023-02-01T09:32:37;6.10;99.90
54431;DHT22;40342;52.998;5.862;2023-02-01T09:35:03;6.20;99.90
54431;DHT22;40342;52.998;5.862;2023-02-01T09:37:28;6.20;99.90
54431;DHT22;40342;52.998;5.862;2023-02-01T09:39:54;6.20;99.90
54431;DHT22;40342;52.998;5.862;2023-02-01T09:48:13;6.20;99.90
54431;DHT22;40342;52.998;5.862;2023-02-01T09:50:43;6.30;99.90
54431;DHT22;40342;52.998;5.862;2023-02-01T09:53:18;6.30;99.90
54431;DHT22;40342;52.998;5.862;2023-02-01T09:55:49;6.30;99.90
54431;DHT22;40342;52.998;5.862;2023-02-01T09:58:27;6.30;99.90
54431;DHT22;40342;52.998;5.862;2023-02-01T10:00:58;6.30;99.90
54431;DHT22;40342;52.998;5.862;2023-02-01T10:03:27;6.30;99.90
54431;DHT22;40342;52.998;5.862;2023-02-01T10:09:11;6.30;99.90
54431;DHT22;40342;52.998;5.862;2023-02-01T10:23:05;6.40;99.90
54431;DHT22;40342;52.998;5.862;2023-02-01T10:25:37;6.50;99.90
54431;DHT22;40342;52.998;5.862;2023-02-01T10:28:11;6.50;99.90
54431;DHT22;40342;52.998;5.862;2023-02-01T10:30:42;6.50;99.90
54431;DHT22;40342;52.998;5.862;2023-02-01T10:35:55;6.50;99.90
54431;DHT22;40342;52.998;5.862;2023-02-01T10:38:32;6.60;99.90
54431;DHT22;40342;52.998;5.862;2023-02-01T10:41:03;6.60;99.90
54431;DHT22;40342;52.998;5.862;2023-02-01T10:43:36;6.60;99.90
54431;DHT22;40342;52.998;5.862;2023-02-01T10:46:01;6.70;99.90
54431;DHT22;40342;52.998;5.862;2023-02-01T10:48:27;6.70;99.90
54431;DHT22;40342;52.998;5.862;2023-02-01T10:51:26;6.70;99.90
54431;DHT22;40342;52.998;5.862;2023-02-01T10:54:01;6.70;99.90
54431;DHT22;40342;52.998;5.862;2023-02-01T10:56:28;6.80;99.90
54431;DHT22;40342;52.998;5.862;2023-02-01T10:59:02;6.80;99.90
54431;DHT22;40342;52.998;5.862;2023-02-01T11:01:33;6.80;99.90
54431;DHT22;40342;52.998;5.862;2023-02-01T11:04:02;6.90;99.90
54431;DHT22;40342;52.998;5.862;2023-02-01T11:06:35;6.90;99.90
54431;DHT22;40342;52.998;5.862;2023-02-01T11:11:53;6.90;99.90
54431;DHT22;40342;52.998;5.862;2023-02-01T11:14:40;6.90;99.90
54431;DHT22;40342;52.998;5.862;2023-02-01T11:20:12;6.90;99.90
54431;DHT22;40342;52.998;5.862;2023-02-01T11:22:49;6.80;99.90
54431;DHT22;40342;52.998;5.862;2023-02-01T11:25:18;6.80;99.90
54431;DHT22;40342;52.998;5.862;2023-02-01T11:27:44;6.80;99.90
54431;DHT22;40342;52.998;5.862;2023-02-01T11:30:16;6.70;99.90
54431;DHT22;40342;52.998;5.862;2023-02-01T11:32:42;6.70;99.90
54431;DHT22;40342;52.998;5.862;2023-02-01T11:35:15;6.60;99.90
54431;DHT22;40342;52.998;5.862;2023-02-01T11:37:42;6.50;99.90
54431;DHT22;40342;52.998;5.862;2023-02-01T11:42:54;6.50;99.90
54431;DHT22;40342;52.998;5.862;2023-02-01T11:45:26;6.50;99.90
54431;DHT22;40342;52.998;5.862;2023-02-01T11:47:53;6.60;99.90
54431;DHT22;40342;52.998;5.862;2023-02-01T11:53:55;6.60;99.90
54431;DHT22;40342;52.998;5.862;2023-02-01T11:56:30;6.60;99.90
54431;DHT22;40342;52.998;5.862;2023-02-01T11:59:05;6.60;99.90
54431;DHT22;40342;52.998;5.862;2023-02-01T12:02:09;6.60;99.90
54431;DHT22;40342;52.998;5.862;2023-02-01T12:10:50;6.70;99.90
54431;DHT22;40342;52.998;5.862;2023-02-01T12:16:48;6.80;99.90
54431;DHT22;40342;52.998;5.862;2023-02-01T12:19:41;6.80;99.90
54431;DHT22;40342;52.998;5.862;2023-02-01T12:27:42;6.90;99.90
54431;DHT22;40342;52.998;5.862;2023-02-01T12:46:33;7.10;99.90
54431;DHT22;40342;52.998;5.862;2023-02-01T12:51:35;7.20;99.90
54431;DHT22;40342;52.998;5.862;2023-02-01T12:54:38;7.20;99.90
54431;DHT22;40342;52.998;5.862;2023-02-01T12:57:04;7.20;99.90
54431;DHT22;40342;52.998;5.862;2023-02-01T13:00:01;7.10;99.90
54431;DHT22;40342;52.998;5.862;2023-02-01T13:05:27;7.20;99.90
54431;DHT22;40342;52.998;5.862;2023-02-01T13:10:43;7.30;99.90
54431;DHT22;40342;52.998;5.862;2023-02-01T13:13:26;7.30;99.90
54431;DHT22;40342;52.998;5.862;2023-02-01T13:18:36;7.60;99.90
54431;DHT22;40342;52.998;5.862;2023-02-01T13:21:24;7.80;99.90
54431;DHT22;40342;52.998;5.862;2023-02-01T13:23:52;7.80;99.90
54431;DHT22;40342;52.998;5.862;2023-02-01T13:26:18;7.80;99.90
54431;DHT22;40342;52.998;5.862;2023-02-01T13:28:54;7.90;99.90
54431;DHT22;40342;52.998;5.862;2023-02-01T13:31:49;7.90;99.90
54431;DHT22;40342;52.998;5.862;2023-02-01T13:34:40;7.90;99.90
54431;DHT22;40342;52.998;5.862;2023-02-01T13:42:46;8.00;99.90
54431;DHT22;40342;52.998;5.862;2023-02-01T13:45:16;8.00;99.90
54431;DHT22;40342;52.998;5.862;2023-02-01T13:47:46;8.00;99.90
54431;DHT22;40342;52.998;5.862;2023-02-01T13:50:21;8.10;99.90
54431;DHT22;40342;52.998;5.862;2023-02-01T13:53:13;8.10;99.90
54431;DHT22;40342;52.998;5.862;2023-02-01T13:55:40;8.10;99.90
54431;DHT22;40342;52.998;5.862;2023-02-01T13:58:21;8.20;99.90
54431;DHT22;40342;52.998;5.862;2023-02-01T14:00:49;8.20;99.90
54431;DHT22;40342;52.998;5.862;2023-02-01T14:03:22;8.10;99.90
54431;DHT22;40342;52.998;5.862;2023-02-01T14:08:38;8.00;99.90
54431;DHT22;40342;52.998;5.862;2023-02-01T14:11:04;8.00;99.90
54431;DHT22;40342;52.998;5.862;2023-02-01T14:13:41;7.90;99.90
54431;DHT22;40342;52.998;5.862;2023-02-01T14:16:15;7.90;99.90
54431;DHT22;40342;52.998;5.862;2023-02-01T14:21:30;7.80;99.90
54431;DHT22;40342;52.998;5.862;2023-02-01T14:26:44;7.80;99.90
54431;DHT22;40342;52.998;5.862;2023-02-01T14:36:55;7.80;99.90
54431;DHT22;40342;52.998;5.862;2023-02-01T14:39:26;7.90;99.90
54431;DHT22;40342;52.998;5.862;2023-02-01T14:41:55;8.00;99.90
54431;DHT22;40342;52.998;5.862;2023-02-01T14:44:27;8.10;99.90
54431;DHT22;40342;52.998;5.862;2023-02-01T14:47:25;8.10;99.90
54431;DHT22;40342;52.998;5.862;2023-02-01T14:52:37;8.30;99.90
54431;DHT22;40342;52.998;5.862;2023-02-01T14:55:20;8.30;99.90
54431;DHT22;40342;52.998;5.862;2023-02-01T14:57:49;8.20;99.90
54431;DHT22;40342;52.998;5.862;2023-02-01T15:00:27;8.20;99.90
54431;DHT22;40342;52.998;5.862;2023-02-01T15:02:55;8.20;99.90
54431;DHT22;40342;52.998;5.862;2023-02-01T15:07:47;8.10;99.90
54431;DHT22;40342;52.998;5.862;2023-02-01T15:10:12;8.10;99.90
54431;DHT22;40342;52.998;5.862;2023-02-01T15:12:40;8.10;99.90
54431;DHT22;40342;52.998;5.862;2023-02-01T15:15:19;8.10;99.90
54431;DHT22;40342;52.998;5.862;2023-02-01T15:17:55;8.20;99.90
54431;DHT22;40342;52.998;5.862;2023-02-01T15:20:26;8.20;99.90
54431;DHT22;40342;52.998;5.862;2023-02-01T15:23:04;8.20;99.90
54431;DHT22;40342;52.998;5.862;2023-02-01T15:25:35;8.20;99.90
54431;DHT22;40342;52.998;5.862;2023-02-01T15:28:02;8.10;99.90
54431;DHT22;40342;52.998;5.862;2023-02-01T15:30:30;8.20;99.90
54431;DHT22;40342;52.998;5.862;2023-02-01T15:35:53;8.20;99.90
54431;DHT22;40342;52.998;5.862;2023-02-01T15:44:02;7.90;99.90
54431;DHT22;40342;52.998;5.862;2023-02-01T15:48:57;7.60;99.90
54431;DHT22;40342;52.998;5.862;2023-02-01T15:51:28;7.50;99.90
54431;DHT22;40342;52.998;5.862;2023-02-01T15:54:02;7.40;99.90
54431;DHT22;40342;52.998;5.862;2023-02-01T15:56:32;7.30;99.90
54431;DHT22;40342;52.998;5.862;2023-02-01T15:59:00;7.30;99.90
54431;DHT22;40342;52.998;5.862;2023-02-01T16:01:27;7.30;99.90
54431;DHT22;40342;52.998;5.862;2023-02-01T16:04:22;7.20;99.90
54431;DHT22;40342;52.998;5.862;2023-02-01T16:06:54;7.20;99.90
54431;DHT22;40342;52.998;5.862;2023-02-01T16:09:23;7.10;99.90
54431;DHT22;40342;52.998;5.862;2023-02-01T16:11:59;7.10;99.90
54431;DHT22;40342;52.998;5.862;2023-02-01T16:14:25;7.10;99.90
54431;DHT22;40342;52.998;5.862;2023-02-01T16:16:56;7.10;99.90
54431;DHT22;40342;52.998;5.862;2023-02-01T16:19:21;7.10;99.90
54431;DHT22;40342;52.998;5.862;2023-02-01T16:21:50;7.00;99.90
54431;DHT22;40342;52.998;5.862;2023-02-01T16:24:16;7.00;99.90
54431;DHT22;40342;52.998;5.862;2023-02-01T16:26:41;7.00;99.90
54431;DHT22;40342;52.998;5.862;2023-02-01T16:29:07;6.90;99.90
54431;DHT22;40342;52.998;5.862;2023-02-01T16:31:38;6.90;99.90
54431;DHT22;40342;52.998;5.862;2023-02-01T16:34:05;6.90;99.90
54431;DHT22;40342;52.998;5.862;2023-02-01T16:36:31;6.90;99.90
54431;DHT22;40342;52.998;5.862;2023-02-01T16:38:57;6.90;99.90
54431;DHT22;40342;52.998;5.862;2023-02-01T16:41:24;6.80;99.90
54431;DHT22;40342;52.998;5.862;2023-02-01T16:43:51;6.80;99.90
54431;DHT22;40342;52.998;5.862;2023-02-01T16:46:19;6.80;99.90
54431;DHT22;40342;52.998;5.862;2023-02-01T16:48:59;6.80;99.90
54431;DHT22;40342;52.998;5.862;2023-02-01T16:51:27;6.80;99.90
54431;DHT22;40342;52.998;5.862;2023-02-01T16:53:53;6.80;99.90
54431;DHT22;40342;52.998;5.862;2023-02-01T16:56:21;6.70;99.90
54431;DHT22;40342;52.998;5.862;2023-02-01T16:58:47;6.80;99.90
54431;DHT22;40342;52.998;5.862;2023-02-01T17:01:14;6.70;99.90
54431;DHT22;40342;52.998;5.862;2023-02-01T17:03:41;6.70;99.90
54431;DHT22;40342;52.998;5.862;2023-02-01T17:06:10;6.70;99.90
54431;DHT22;40342;52.998;5.862;2023-02-01T17:08:39;6.70;99.90
54431;DHT22;40342;52.998;5.862;2023-02-01T17:11:06;6.60;99.90
54431;DHT22;40342;52.998;5.862;2023-02-01T17:13:33;6.60;99.90
54431;DHT22;40342;52.998;5.862;2023-02-01T17:18:57;6.50;99.90
54431;DHT22;40342;52.998;5.862;2023-02-01T17:21:24;6.40;99.90
54431;DHT22;40342;52.998;5.862;2023-02-01T17:23:51;6.40;99.90
54431;DHT22;40342;52.998;5.862;2023-02-01T17:26:18;6.40;99.90
54431;DHT22;40342;52.998;5.862;2023-02-01T17:28:44;6.30;99.90
54431;DHT22;40342;52.998;5.862;2023-02-01T17:31:13;6.30;99.90
54431;DHT22;40342;52.998;5.862;2023-02-01T17:33:40;6.30;99.90
54431;DHT22;40342;52.998;5.862;2023-02-01T17:36:08;6.30;99.90
54431;DHT22;40342;52.998;5.862;2023-02-01T17:38:35;6.20;99.90
54431;DHT22;40342;52.998;5.862;2023-02-01T17:41:01;6.20;99.90
54431;DHT22;40342;52.998;5.862;2023-02-01T17:43:27;6.20;99.90
54431;DHT22;40342;52.998;5.862;2023-02-01T17:46:14;6.20;99.90
54431;DHT22;40342;52.998;5.862;2023-02-01T17:48:41;6.20;99.90
54431;DHT22;40342;52.998;5.862;2023-02-01T17:51:19;6.30;99.90
54431;DHT22;40342;52.998;5.862;2023-02-01T17:53:45;6.30;99.90
54431;DHT22;40342;52.998;5.862;2023-02-01T17:56:22;6.30;99.90
54431;DHT22;40342;52.998;5.862;2023-02-01T17:58:48;6.30;99.90
54431;DHT22;40342;52.998;5.862;2023-02-01T18:01:19;6.20;99.90
54431;DHT22;40342;52.998;5.862;2023-02-01T18:03:46;6.30;99.90
54431;DHT22;40342;52.998;5.862;2023-02-01T18:06:21;6.30;99.90
54431;DHT22;40342;52.998;5.862;2023-02-01T18:08:47;6.30;99.90
54431;DHT22;40342;52.998;5.862;2023-02-01T18:11:21;6.30;99.90
54431;DHT22;40342;52.998;5.862;2023-02-01T18:13:48;6.30;99.90
54431;DHT22;40342;52.998;5.862;2023-02-01T18:16:30;6.30;99.90
54431;DHT22;40342;52.998;5.862;2023-02-01T18:18:56;6.30;99.90
54431;DHT22;40342;52.998;5.862;2023-02-01T18:21:37;6.30;99.90
54431;DHT22;40342;52.998;5.862;2023-02-01T18:24:04;6.30;99.90